Time;durP1;ratioP1;P1;durP2;ratioP2;P2;SDS_P1;SDS_P2;PMS_P1;PMS_P2;Temp;Humidity;BMP_temperature;BMP_pressure;BME280_temperature;BME280_humidity;BME280_pressure;Samples;Min_cycle;Max_cycle;Signal;HPM_P1;HPM_P2
2022/08/26 00:00:24;;;;;;;11.80;8.63;;;19.30;99.90;;;;;;5087076;28;20441;-56
2022/08/26 00:02:49;;;;;;;11.98;8.35;;;19.30;99.90;;;;;;5100392;28;20028;-56
2022/08/26 00:05:15;;;;;;;13.50;8.73;;;19.30;99.90;;;;;;5091689;28;20028;-56
2022/08/26 00:07:41;;;;;;;10.80;8.35;;;19.20;99.90;;;;;;5104877;28;20035;-56
2022/08/26 00:10:07;;;;;;;11.55;8.05;;;19.20;99.90;;;;;;5109864;28;20019;-57
2022/08/26 00:12:33;;;;;;;9.35;8.10;;;19.20;99.90;;;;;;5079413;28;20013;-55
2022/08/26 00:14:59;;;;;;;13.45;7.88;;;19.20;99.90;;;;;;5083391;28;20047;-56
2022/08/26 00:17:24;;;;;;;16.33;10.02;;;19.20;99.90;;;;;;5093795;28;20027;-57
2022/08/26 00:19:50;;;;;;;14.00;10.00;;;19.20;99.90;;;;;;5108253;28;20055;-56
2022/08/26 00:22:15;;;;;;;16.65;8.93;;;19.20;99.90;;;;;;5093005;28;20434;-56
2022/08/26 00:24:41;;;;;;;17.05;9.10;;;19.20;99.90;;;;;;5084420;28;20052;-56
2022/08/26 00:27:06;;;;;;;9.60;8.15;;;19.20;99.90;;;;;;5098639;28;20399;-56
2022/08/26 00:29:33;;;;;;;12.27;8.32;;;19.20;99.90;;;;;;5109602;28;20123;-57
2022/08/26 00:32:00;;;;;;;15.00;8.52;;;19.20;99.90;;;;;;5092216;28;20217;-56
2022/08/26 00:34:25;;;;;;;11.40;8.48;;;19.20;99.90;;;;;;5088651;28;20043;-55
2022/08/26 00:36:51;;;;;;;11.07;8.15;;;19.20;99.90;;;;;;5078318;28;20028;-56
2022/08/26 00:39:16;;;;;;;11.23;8.18;;;19.20;99.90;;;;;;5087403;28;20539;-54
2022/08/26 00:41:42;;;;;;;10.07;7.55;;;19.10;99.90;;;;;;5099773;28;20019;-54
2022/08/26 00:44:09;;;;;;;15.70;9.52;;;19.10;99.90;;;;;;5075378;28;20115;-57
2022/08/26 00:46:42;;;;;;;13.18;8.38;;;19.10;99.90;;;;;;5077815;28;20110;-57
2022/08/26 00:49:24;;;;;;;10.80;8.00;;;19.10;99.90;;;;;;5113692;28;20110;-57
2022/08/26 00:51:53;;;;;;;12.48;7.70;;;19.10;99.90;;;;;;5082620;28;20471;-57
2022/08/26 00:54:21;;;;;;;12.63;8.88;;;19.10;99.90;;;;;;5107639;28;20097;-57
2022/08/26 00:56:53;;;;;;;12.98;9.10;;;19.10;99.90;;;;;;5096740;28;20030;-56
2022/08/26 00:59:19;;;;;;;15.05;8.07;;;19.10;99.90;;;;;;5100565;28;20043;-56
2022/08/26 01:01:45;;;;;;;11.07;8.15;;;19.10;99.90;;;;;;5099156;28;20032;-57
2022/08/26 01:04:16;;;;;;;13.65;9.82;;;19.20;99.90;;;;;;5092830;28;20427;-57
2022/08/26 01:06:41;;;;;;;12.07;9.15;;;19.20;99.90;;;;;;5089109;28;20028;-57
2022/08/26 01:09:07;;;;;;;15.63;9.07;;;19.20;99.90;;;;;;5089431;28;20399;-56
2022/08/26 01:11:33;;;;;;;13.98;8.48;;;19.30;99.90;;;;;;5087875;28;20099;-57
2022/08/26 01:14:01;;;;;;;12.35;8.60;;;19.30;99.90;;;;;;5096128;28;20048;-56
2022/08/26 01:16:27;;;;;;;13.27;9.05;;;19.30;99.90;;;;;;5086632;28;20054;-57
2022/08/26 01:18:58;;;;;;;10.85;8.10;;;19.40;99.90;;;;;;5084695;28;20175;-56
2022/08/26 01:21:46;;;;;;;14.57;8.77;;;19.40;99.90;;;;;;5074971;28;20024;-55
2022/08/26 01:24:12;;;;;;;15.00;8.85;;;19.40;99.90;;;;;;5074153;28;20032;-56
2022/08/26 01:26:41;;;;;;;17.77;8.77;;;19.40;99.90;;;;;;5093542;28;20395;-56
2022/08/26 01:29:17;;;;;;;18.50;8.52;;;19.40;99.90;;;;;;5092730;28;20047;-56
2022/08/26 01:31:47;;;;;;;16.17;9.30;;;19.40;99.90;;;;;;5088339;28;20020;-57
2022/08/26 01:34:21;;;;;;;14.52;8.57;;;19.40;99.90;;;;;;5098255;28;20082;-56
2022/08/26 01:36:49;;;;;;;13.90;8.48;;;19.50;99.90;;;;;;5094044;28;20442;-56
2022/08/26 01:39:15;;;;;;;9.20;7.47;;;19.50;99.90;;;;;;5092565;28;20036;-58
2022/08/26 01:41:42;;;;;;;11.43;8.25;;;19.50;99.90;;;;;;5092017;28;20032;-59
2022/08/26 01:44:13;;;;;;;15.65;7.88;;;19.40;99.90;;;;;;5088295;28;20519;-57
2022/08/26 01:46:39;;;;;;;13.32;8.23;;;19.40;99.90;;;;;;5073127;28;20040;-57
2022/08/26 01:49:07;;;;;;;9.30;7.82;;;19.40;99.90;;;;;;5074934;28;20036;-56
2022/08/26 01:51:37;;;;;;;11.20;7.25;;;19.30;99.90;;;;;;5104397;28;20020;-57
2022/08/26 01:54:05;;;;;;;13.45;7.25;;;19.30;99.90;;;;;;5092730;28;20036;-56
2022/08/26 01:56:32;;;;;;;12.75;7.50;;;19.30;99.90;;;;;;5090963;28;20506;-57
2022/08/26 01:59:01;;;;;;;13.65;8.07;;;19.30;99.90;;;;;;5073283;28;20024;-58
2022/08/26 02:01:27;;;;;;;14.45;7.43;;;19.20;99.90;;;;;;5095403;28;20094;-57
2022/08/26 02:04:13;;;;;;;12.23;7.38;;;19.20;99.90;;;;;;5089488;28;20032;-58
2022/08/26 02:06:39;;;;;;;17.50;7.50;;;19.20;99.90;;;;;;5073427;28;20587;-58
2022/08/26 02:09:06;;;;;;;13.95;8.30;;;19.20;99.90;;;;;;5095439;28;20032;-57
2022/08/26 02:11:32;;;;;;;12.20;7.72;;;19.10;99.90;;;;;;5098228;28;20035;-57
2022/08/26 02:14:02;;;;;;;15.38;7.95;;;19.10;99.90;;;;;;5084334;28;20109;-56
2022/08/26 02:16:32;;;;;;;15.98;8.43;;;19.00;99.90;;;;;;5097266;28;20036;-56
2022/08/26 02:19:00;;;;;;;12.98;8.43;;;19.00;99.90;;;;;;5085282;28;20032;-54
2022/08/26 02:21:26;;;;;;;13.95;7.72;;;19.00;99.90;;;;;;5111814;28;20420;-53
2022/08/26 02:23:52;;;;;;;15.25;7.75;;;19.00;99.90;;;;;;5074589;28;20085;-53
2022/08/26 02:26:21;;;;;;;13.50;8.15;;;19.00;99.90;;;;;;5105184;28;20028;-54
2022/08/26 02:29:01;;;;;;;11.43;7.57;;;18.90;99.90;;;;;;5091998;28;20403;-55
2022/08/26 02:31:27;;;;;;;13.68;8.52;;;18.90;99.90;;;;;;5072909;28;20361;-61
2022/08/26 02:33:53;;;;;;;13.95;8.65;;;18.90;99.90;;;;;;5086498;28;20040;-61
2022/08/26 02:36:24;;;;;;;12.45;7.82;;;18.90;99.90;;;;;;5087528;28;20040;-61
2022/08/26 02:38:49;;;;;;;14.45;8.63;;;18.90;99.90;;;;;;5109007;28;20606;-61
2022/08/26 02:41:15;;;;;;;13.07;7.47;;;19.00;99.90;;;;;;5073999;28;20035;-60
2022/08/26 02:43:41;;;;;;;10.68;8.13;;;19.00;99.90;;;;;;5093612;28;20028;-60
2022/08/26 02:46:06;;;;;;;11.80;8.98;;;19.00;99.90;;;;;;5106332;28;20024;-59
2022/08/26 02:48:32;;;;;;;14.90;8.73;;;19.10;99.90;;;;;;5097851;28;20271;-56
2022/08/26 02:50:59;;;;;;;14.57;8.50;;;19.20;99.90;;;;;;5107949;28;20027;-56
2022/08/26 02:53:25;;;;;;;12.25;8.13;;;19.20;99.90;;;;;;5104803;28;20034;-56
2022/08/26 02:55:50;;;;;;;15.93;9.05;;;19.30;99.90;;;;;;5074246;28;20036;-55
2022/08/26 02:58:16;;;;;;;14.32;8.07;;;19.30;99.90;;;;;;5093678;28;20425;-56
2022/08/26 03:00:42;;;;;;;17.25;9.82;;;19.30;99.90;;;;;;5101725;28;20021;-56
2022/08/26 03:03:08;;;;;;;16.88;9.45;;;19.40;99.90;;;;;;5097561;28;20031;-57
2022/08/26 03:05:34;;;;;;;19.45;10.15;;;19.40;99.90;;;;;;5098555;28;20542;-56
2022/08/26 03:08:00;;;;;;;14.25;8.13;;;19.50;99.90;;;;;;5103817;28;20034;-57
2022/08/26 03:10:27;;;;;;;20.55;9.02;;;19.50;99.90;;;;;;5091889;28;20036;-55
2022/08/26 03:12:52;;;;;;;16.55;9.13;;;19.50;99.90;;;;;;5103993;28;20052;-56
2022/08/26 03:15:18;;;;;;;19.48;9.57;;;19.60;99.90;;;;;;5078129;28;20063;-57
2022/08/26 03:17:46;;;;;;;16.25;9.30;;;19.60;99.90;;;;;;5094839;28;20084;-56
2022/08/26 03:20:11;;;;;;;15.55;9.07;;;19.70;99.90;;;;;;5077972;28;20036;-56
2022/08/26 03:22:37;;;;;;;16.65;9.35;;;19.70;99.90;;;;;;5090333;28;20031;-55
2022/08/26 03:25:06;;;;;;;20.42;9.73;;;19.70;99.90;;;;;;5110726;28;20043;-56
2022/08/26 03:27:32;;;;;;;15.15;9.50;;;19.80;99.90;;;;;;5090707;28;20027;-57
2022/08/26 03:32:43;;;;;;;12.13;8.77;;;19.70;99.90;;;;;;5077587;28;20057;-57
2022/08/26 03:35:09;;;;;;;21.80;8.82;;;19.70;99.90;;;;;;5088423;28;20097;-56
2022/08/26 03:37:34;;;;;;;14.32;9.45;;;19.70;99.90;;;;;;5093344;28;20480;-56
2022/08/26 03:40:00;;;;;;;12.65;8.63;;;19.60;99.90;;;;;;5074679;28;20024;-55
2022/08/26 03:42:25;;;;;;;19.35;8.82;;;19.60;99.90;;;;;;5088294;28;20491;-57
2022/08/26 03:44:51;;;;;;;18.25;9.23;;;19.60;99.90;;;;;;5071101;28;20027;-57
2022/08/26 03:47:17;;;;;;;16.95;9.85;;;19.50;99.90;;;;;;5089607;28;20446;-55
2022/08/26 03:49:42;;;;;;;16.13;10.32;;;19.50;99.90;;;;;;5105272;28;20020;-55
2022/08/26 03:52:09;;;;;;;18.45;10.38;;;19.60;99.90;;;;;;5090017;28;20028;-57
2022/08/26 03:54:34;;;;;;;24.05;10.70;;;19.50;99.90;;;;;;5080367;28;20111;-57
2022/08/26 03:57:00;;;;;;;19.30;10.68;;;19.50;99.90;;;;;;5077637;28;20107;-57
2022/08/26 03:59:26;;;;;;;16.90;10.05;;;19.50;99.90;;;;;;5070457;28;20036;-56
2022/08/26 04:01:52;;;;;;;19.25;10.27;;;19.50;99.90;;;;;;5079784;28;20035;-56
2022/08/26 04:04:17;;;;;;;16.10;10.27;;;19.50;99.90;;;;;;5091586;28;20020;-55
2022/08/26 04:06:43;;;;;;;21.33;10.88;;;19.50;99.90;;;;;;5084867;28;20036;-57
2022/08/26 04:09:14;;;;;;;16.52;10.50;;;19.50;99.90;;;;;;5091082;28;20044;-56
2022/08/26 04:11:43;;;;;;;15.00;9.77;;;19.50;99.90;;;;;;5085402;28;20491;-58
2022/08/26 04:14:13;;;;;;;14.82;10.27;;;19.50;99.90;;;;;;5088438;28;20024;-57
2022/08/26 04:16:40;;;;;;;15.88;11.48;;;19.50;99.90;;;;;;5078458;28;20024;-57
2022/08/26 04:19:05;;;;;;;19.15;10.85;;;19.50;99.90;;;;;;5075683;28;20024;-57
2022/08/26 04:21:31;;;;;;;22.67;11.32;;;19.50;99.90;;;;;;5096627;28;20103;-56
2022/08/26 04:23:56;;;;;;;17.80;10.20;;;19.50;99.90;;;;;;5105402;28;20028;-57
2022/08/26 04:26:23;;;;;;;19.25;10.90;;;19.50;99.90;;;;;;5098749;28;20036;-58
2022/08/26 04:28:50;;;;;;;15.80;10.52;;;19.60;99.90;;;;;;5080653;28;20104;-57
2022/08/26 04:31:17;;;;;;;15.90;10.55;;;19.60;99.90;;;;;;5076979;28;20029;-56
2022/08/26 04:33:46;;;;;;;20.15;12.23;;;19.60;99.90;;;;;;5103860;28;20046;-54
2022/08/26 04:36:12;;;;;;;16.83;10.95;;;19.70;99.90;;;;;;5080914;28;20032;-57
2022/08/26 04:38:38;;;;;;;18.75;11.45;;;19.70;99.90;;;;;;5106600;28;20038;-56
2022/08/26 04:41:06;;;;;;;20.52;10.30;;;19.80;99.90;;;;;;5097827;28;20081;-57
2022/08/26 04:43:32;;;;;;;18.92;10.73;;;19.80;99.90;;;;;;5098105;28;20019;-56
2022/08/26 04:46:00;;;;;;;18.10;11.50;;;19.90;99.90;;;;;;5092027;28;20032;-56
2022/08/26 04:48:28;;;;;;;19.60;10.88;;;19.90;99.90;;;;;;5085245;28;20051;-57
2022/08/26 04:50:54;;;;;;;16.40;10.85;;;20.00;99.90;;;;;;5073727;28;20439;-57
2022/08/26 04:53:20;;;;;;;17.05;10.80;;;20.10;99.90;;;;;;5106991;28;20028;-56
2022/08/26 04:55:45;;;;;;;15.60;10.07;;;20.20;99.90;;;;;;5072168;28;20050;-56
2022/08/26 04:58:14;;;;;;;17.00;10.60;;;20.40;99.90;;;;;;5083200;28;20020;-58
2022/08/26 05:00:42;;;;;;;19.50;10.13;;;20.50;99.90;;;;;;5089199;28;20036;-58
2022/08/26 05:03:07;;;;;;;16.98;10.88;;;20.60;99.90;;;;;;5098527;28;20059;-59
2022/08/26 05:05:32;;;;;;;17.60;11.88;;;20.80;99.90;;;;;;5089064;28;20060;-59
2022/08/26 05:07:58;;;;;;;17.27;10.10;;;20.90;99.90;;;;;;5094418;28;20415;-57
2022/08/26 05:10:23;;;;;;;25.00;10.32;;;21.00;99.90;;;;;;5068594;28;20032;-57
2022/08/26 05:12:49;;;;;;;14.93;9.65;;;21.20;99.90;;;;;;5087122;28;20032;-59
2022/08/26 05:15:14;;;;;;;16.10;10.52;;;21.40;99.90;;;;;;5083494;28;20503;-57
2022/08/26 05:17:40;;;;;;;11.57;9.20;;;21.70;99.90;;;;;;5105909;28;20031;-58
2022/08/26 05:20:06;;;;;;;17.65;9.85;;;22.00;99.90;;;;;;5085949;28;20388;-58
2022/08/26 05:22:31;;;;;;;20.13;10.18;;;22.40;99.90;;;;;;5091180;28;20036;-58
2022/08/26 05:24:57;;;;;;;16.10;10.05;;;22.80;99.90;;;;;;5088595;28;20028;-58
2022/08/26 05:27:22;;;;;;;18.13;9.25;;;23.20;99.90;;;;;;5076913;28;20085;-58
2022/08/26 05:29:47;;;;;;;17.77;10.30;;;23.60;99.90;;;;;;5108949;28;20027;-58
2022/08/26 05:32:14;;;;;;;18.33;10.15;;;23.80;99.90;;;;;;5078594;28;20146;-58
2022/08/26 05:34:39;;;;;;;16.25;8.60;;;24.10;99.30;;;;;;5077589;28;20044;-57
2022/08/26 05:37:05;;;;;;;18.42;9.43;;;24.40;94.90;;;;;;5096395;28;20517;-58
2022/08/26 05:39:32;;;;;;;16.65;9.50;;;24.60;93.40;;;;;;5091387;28;20487;-58
2022/08/26 05:41:58;;;;;;;23.48;9.93;;;24.80;97.70;;;;;;5096549;28;20039;-57
2022/08/26 05:44:23;;;;;;;13.55;8.85;;;25.30;94.50;;;;;;5105055;28;20059;-57
2022/08/26 05:46:50;;;;;;;16.33;8.90;;;25.60;94.00;;;;;;5102954;28;20063;-56
2022/08/26 05:49:15;;;;;;;12.30;8.13;;;25.80;92.30;;;;;;5101021;28;20029;-57
2022/08/26 05:51:43;;;;;;;14.23;8.77;;;26.30;91.30;;;;;;5094263;28;20026;-56
2022/08/26 05:54:10;;;;;;;13.98;8.18;;;26.60;86.00;;;;;;5095298;28;20077;-58
2022/08/26 05:56:35;;;;;;;13.80;8.27;;;26.90;83.80;;;;;;5099832;28;20036;-58
2022/08/26 05:59:01;;;;;;;17.17;7.68;;;27.20;84.30;;;;;;5082612;28;20047;-58
2022/08/26 06:01:28;;;;;;;15.98;7.47;;;27.80;82.20;;;;;;5088965;28;20039;-57
2022/08/26 06:03:57;;;;;;;10.98;7.28;;;28.30;73.30;;;;;;5107903;28;20073;-57
2022/08/26 06:06:25;;;;;;;10.93;7.55;;;28.40;74.30;;;;;;5089330;28;20024;-57
2022/08/26 06:08:51;;;;;;;16.50;7.53;;;28.70;64.50;;;;;;5094988;28;20028;-56
2022/08/26 06:11:24;;;;;;;16.08;8.23;;;29.10;70.10;;;;;;5089524;28;20048;-58
2022/08/26 06:13:53;;;;;;;10.63;7.55;;;29.10;67.80;;;;;;5096750;28;20506;-57
2022/08/26 06:16:21;;;;;;;12.20;7.55;;;29.60;64.90;;;;;;5095492;28;20484;-58
2022/08/26 06:18:47;;;;;;;12.40;8.38;;;29.90;62.20;;;;;;5102109;28;20119;-58
2022/08/26 06:21:26;;;;;;;14.02;7.82;;;30.00;61.30;;;;;;5091102;28;20659;-57
2022/08/26 06:26:40;;;;;;;10.68;6.00;;;30.80;58.40;;;;;;5080276;28;20035;-57
2022/08/26 06:29:06;;;;;;;15.98;7.35;;;31.40;57.70;;;;;;5094947;28;20483;-59
2022/08/26 06:31:34;;;;;;;16.73;7.22;;;31.20;54.00;;;;;;5098822;28;20049;-55
2022/08/26 06:33:59;;;;;;;16.33;7.13;;;31.20;53.10;;;;;;5094430;28;20060;-54
2022/08/26 06:36:27;;;;;;;15.85;7.40;;;31.10;49.00;;;;;;5076906;28;20189;-53
2022/08/26 06:38:54;;;;;;;14.30;7.07;;;31.20;51.80;;;;;;5094464;28;20031;-52
2022/08/26 06:41:22;;;;;;;12.13;6.25;;;31.80;51.60;;;;;;5099316;28;20115;-56
2022/08/26 06:43:48;;;;;;;10.35;6.07;;;32.40;47.30;;;;;;5108981;28;20600;-52
2022/08/26 06:46:16;;;;;;;12.30;6.93;;;32.40;48.20;;;;;;5091935;28;20039;-56
2022/08/26 06:48:42;;;;;;;14.48;6.90;;;32.30;45.50;;;;;;5095453;28;20080;-56
2022/08/26 06:51:22;;;;;;;11.07;6.07;;;32.50;45.50;;;;;;5093181;28;20036;-55
2022/08/26 06:53:50;;;;;;;10.73;5.70;;;33.00;37.30;;;;;;5098595;28;20576;-56
2022/08/26 06:56:19;;;;;;;14.18;6.32;;;33.40;39.90;;;;;;5091696;28;20464;-54
2022/08/26 06:58:45;;;;;;;12.13;6.30;;;33.70;41.00;;;;;;5096786;28;20028;-55
2022/08/26 07:01:15;;;;;;;14.43;7.63;;;34.00;40.30;;;;;;5083601;28;20035;-55
2022/08/26 07:03:40;;;;;;;12.45;6.72;;;33.80;30.10;;;;;;5098056;28;20039;-56
2022/08/26 07:06:06;;;;;;;10.38;5.45;;;33.70;38.40;;;;;;5077281;28;20037;-53
2022/08/26 07:08:32;;;;;;;13.85;6.68;;;34.10;37.70;;;;;;5097840;28;20036;-55
2022/08/26 07:10:58;;;;;;;13.63;6.60;;;34.30;31.40;;;;;;5079473;28;20032;-54
2022/08/26 07:13:23;;;;;;;14.07;6.82;;;34.00;35.40;;;;;;5087645;28;20542;-53
2022/08/26 07:15:49;;;;;;;12.25;6.70;;;34.00;34.40;;;;;;5099705;28;20068;-54
2022/08/26 07:18:15;;;;;;;13.43;5.68;;;34.50;34.70;;;;;;5102193;28;20027;-52
2022/08/26 07:20:41;;;;;;;11.57;6.05;;;35.20;33.40;;;;;;5073933;28;20035;-54
2022/08/26 07:23:08;;;;;;;13.38;5.32;;;35.50;32.10;;;;;;5081687;28;20036;-50
2022/08/26 07:25:38;;;;;;;11.65;5.97;;;36.00;30.90;;;;;;5091545;28;20273;-52
2022/08/26 07:28:03;;;;;;;17.67;5.43;;;36.30;29.20;;;;;;5094048;28;20055;-55
2022/08/26 07:30:29;;;;;;;14.85;6.18;;;36.50;28.10;;;;;;5105025;27;20062;-52
2022/08/26 07:32:56;;;;;;;11.63;5.88;;;36.50;27.30;;;;;;5086729;28;20028;-49
2022/08/26 07:35:21;;;;;;;9.63;5.80;;;36.50;26.70;;;;;;5087438;28;20082;-54
2022/08/26 07:37:47;;;;;;;8.60;5.50;;;36.60;26.60;;;;;;5085111;28;20024;-52
2022/08/26 07:40:14;;;;;;;9.80;5.07;;;36.70;26.20;;;;;;5087375;28;20040;-51
2022/08/26 07:42:41;;;;;;;6.82;5.45;;;36.70;25.50;;;;;;5105467;28;20055;-52
2022/08/26 07:45:06;;;;;;;14.77;6.20;;;36.70;24.70;;;;;;5088827;28;20050;-52
2022/08/26 07:47:32;;;;;;;15.55;5.88;;;36.50;25.00;;;;;;5106396;28;20019;-50
2022/08/26 07:49:58;;;;;;;8.75;5.35;;;36.50;24.90;;;;;;5083170;28;20039;-51
2022/08/26 07:52:29;;;;;;;11.60;5.55;;;36.60;24.70;;;;;;5103339;28;20040;-51
2022/08/26 07:54:56;;;;;;;14.82;6.70;;;36.70;21.80;;;;;;5077951;28;20304;-53
2022/08/26 07:57:23;;;;;;;8.85;5.47;;;36.10;20.90;;;;;;5091645;28;20028;-51
2022/08/26 07:59:48;;;;;;;12.15;5.72;;;35.70;25.10;;;;;;5077746;28;20032;-52
2022/08/26 08:02:14;;;;;;;13.20;5.38;;;35.70;25.40;;;;;;5078139;28;20078;-54
2022/08/26 08:04:39;;;;;;;13.73;5.15;;;36.00;25.60;;;;;;5095240;28;20050;-54
2022/08/26 08:07:05;;;;;;;8.20;5.38;;;36.00;25.10;;;;;;5106481;28;20049;-51
2022/08/26 08:09:30;;;;;;;13.73;5.22;;;35.80;25.10;;;;;;5072414;28;20044;-54
2022/08/26 08:11:56;;;;;;;11.60;5.13;;;35.10;25.80;;;;;;5078691;28;20058;-55
2022/08/26 08:14:21;;;;;;;12.25;5.05;;;35.00;26.20;;;;;;5091420;28;20039;-53
2022/08/26 08:16:47;;;;;;;8.77;4.78;;;35.20;26.90;;;;;;5099836;28;20087;-50
2022/08/26 08:19:14;;;;;;;23.08;5.63;;;35.40;25.80;;;;;;5085225;28;20056;-55
2022/08/26 08:21:39;;;;;;;12.88;5.10;;;34.50;22.90;;;;;;5082830;28;20024;-52
2022/08/26 08:24:05;;;;;;;15.75;5.25;;;33.60;26.60;;;;;;5084339;28;20373;-54
2022/08/26 08:26:30;;;;;;;13.15;5.43;;;33.50;28.30;;;;;;5093009;28;20110;-56
2022/08/26 08:28:56;;;;;;;15.23;6.22;;;33.30;28.10;;;;;;5088476;28;20028;-51
2022/08/26 08:31:26;;;;;;;13.27;4.82;;;32.90;28.10;;;;;;5101513;28;20476;-52
2022/08/26 08:33:52;;;;;;;15.88;4.90;;;33.10;29.10;;;;;;5093569;28;20037;-53
2022/08/26 08:36:18;;;;;;;14.18;5.50;;;33.20;28.80;;;;;;5085638;28;20376;-53
2022/08/26 08:38:44;;;;;;;9.07;4.75;;;33.30;29.00;;;;;;5086220;28;20588;-55
2022/08/26 08:41:40;;;;;;;8.70;4.07;;;33.30;29.40;;;;;;5087136;28;20123;-51
2022/08/26 08:44:14;;;;;;;11.95;4.50;;;33.60;27.40;;;;;;5078831;28;20100;-53
2022/08/26 08:46:41;;;;;;;20.00;5.03;;;33.40;26.80;;;;;;5070106;28;20028;-53
2022/08/26 08:49:08;;;;;;;12.40;4.78;;;32.80;28.80;;;;;;5081397;28;20032;-60
2022/08/26 08:52:05;;;;;;;11.65;4.95;;;32.90;28.10;;;;;;5077893;28;20039;-60
2022/08/26 08:54:32;;;;;;;12.40;4.78;;;33.00;27.60;;;;;;5081271;28;20039;-57
2022/08/26 08:57:11;;;;;;;16.92;5.70;;;33.00;28.70;;;;;;5094694;28;20032;-58
2022/08/26 08:59:46;;;;;;;16.40;4.78;;;33.10;28.80;;;;;;5084529;28;20515;-57
2022/08/26 09:02:34;;;;;;;10.38;4.90;;;32.90;28.50;;;;;;5076650;28;20048;-58
2022/08/26 09:05:05;;;;;;;16.15;5.80;;;32.70;27.80;;;;;;5093823;28;20515;-59
2022/08/26 09:07:42;;;;;;;17.55;5.25;;;32.10;29.80;;;;;;5078735;28;20032;-58
2022/08/26 09:10:24;;;;;;;14.38;5.43;;;31.80;30.90;;;;;;5088231;28;20029;-59
2022/08/26 09:12:50;;;;;;;17.73;5.43;;;31.80;30.20;;;;;;5082460;28;20606;-59
2022/08/26 09:15:38;;;;;;;17.42;5.68;;;32.00;30.00;;;;;;5094268;28;20278;-59
2022/08/26 09:18:06;;;;;;;19.83;4.70;;;32.10;27.70;;;;;;5072156;28;20369;-59
2022/08/26 09:20:41;;;;;;;17.00;5.53;;;32.20;28.20;;;;;;5110165;28;20023;-59
2022/08/26 09:23:09;;;;;;;17.50;5.38;;;32.10;29.10;;;;;;5074307;28;20028;-59
2022/08/26 09:25:48;;;;;;;18.15;5.38;;;32.10;28.10;;;;;;5094311;28;20032;-59
2022/08/26 09:28:20;;;;;;;10.30;4.80;;;32.10;28.70;;;;;;5092312;28;20063;-59
2022/08/26 09:31:10;;;;;;;17.08;5.70;;;32.40;28.80;;;;;;5112793;28;20110;-58
2022/08/26 09:33:35;;;;;;;20.10;5.53;;;32.40;28.70;;;;;;5080651;28;20135;-59
2022/08/26 09:36:11;;;;;;;22.85;6.40;;;32.40;28.40;;;;;;5104558;28;20542;-59
2022/08/26 09:38:37;;;;;;;21.13;6.07;;;32.50;28.20;;;;;;5100089;28;20032;-59
2022/08/26 09:41:10;;;;;;;15.43;4.88;;;32.20;27.90;;;;;;5092375;28;20030;-59
2022/08/26 09:43:36;;;;;;;22.13;6.88;;;32.10;28.50;;;;;;5078160;28;20347;-59
2022/08/26 09:46:21;;;;;;;12.52;4.75;;;32.00;28.70;;;;;;5090868;28;20111;-59
2022/08/26 09:48:47;;;;;;;15.27;5.40;;;32.10;28.80;;;;;;5082813;28;20387;-59
2022/08/26 09:51:29;;;;;;;15.40;5.43;;;31.80;28.90;;;;;;5112392;28;20028;-59
2022/08/26 09:54:00;;;;;;;22.40;5.97;;;31.70;29.00;;;;;;5097180;28;20039;-59
2022/08/26 09:56:35;;;;;;;15.23;5.45;;;31.50;29.30;;;;;;5089090;28;20040;-59
2022/08/26 09:59:02;;;;;;;19.73;5.88;;;31.40;29.40;;;;;;5086153;28;20046;-59
2022/08/26 10:01:36;;;;;;;15.10;6.90;;;31.50;29.70;;;;;;5092171;28;20491;-59
2022/08/26 10:04:09;;;;;;;19.25;5.35;;;31.50;30.40;;;;;;5109833;28;20055;-59
2022/08/26 10:07:00;;;;;;;16.75;5.90;;;31.40;29.10;;;;;;5091562;27;20067;-59
2022/08/26 10:09:27;;;;;;;18.60;5.60;;;31.30;29.20;;;;;;5091913;28;20043;-59
2022/08/26 10:11:55;;;;;;;15.85;5.75;;;31.30;29.20;;;;;;5091050;27;20459;-59
2022/08/26 10:14:32;;;;;;;14.15;6.70;;;31.40;30.00;;;;;;5089807;28;20324;-59
2022/08/26 10:17:04;;;;;;;20.48;6.13;;;31.40;29.50;;;;;;5083389;28;20059;-59
2022/08/26 10:19:39;;;;;;;25.73;6.53;;;31.50;30.40;;;;;;5076620;28;20392;-59
2022/08/26 10:22:12;;;;;;;20.88;6.40;;;31.10;31.10;;;;;;5074524;28;20031;-59
2022/08/26 10:24:46;;;;;;;18.30;6.32;;;31.00;31.40;;;;;;5093001;28;20119;-59
2022/08/26 10:27:44;;;;;;;19.05;6.50;;;30.80;32.80;;;;;;5070155;28;20070;-59
2022/08/26 10:30:14;;;;;;;15.23;5.40;;;30.80;33.70;;;;;;5086458;28;20410;-59
2022/08/26 10:32:43;;;;;;;18.73;5.50;;;30.90;32.80;;;;;;5091996;28;20063;-62
2022/08/26 10:35:11;;;;;;;17.33;6.15;;;30.90;33.00;;;;;;5108109;28;20055;-62
2022/08/26 10:37:49;;;;;;;20.35;6.90;;;30.70;33.00;;;;;;5098573;28;20415;-62
2022/08/26 10:40:23;;;;;;;13.80;6.57;;;30.60;33.20;;;;;;5102599;28;20044;-63
2022/08/26 10:42:55;;;;;;;19.38;6.82;;;30.80;33.10;;;;;;5083671;28;20035;-62
2022/08/26 10:45:25;;;;;;;15.27;6.68;;;30.90;33.00;;;;;;5096159;28;20016;-62
2022/08/26 10:48:11;;;;;;;13.98;6.03;;;31.10;33.30;;;;;;5078074;28;20111;-62
2022/08/26 10:50:42;;;;;;;18.83;7.45;;;31.10;32.60;;;;;;5096304;28;20503;-62
2022/08/26 10:53:30;;;;;;;16.02;7.72;;;30.80;32.90;;;;;;5093627;28;20372;-62
2022/08/26 10:56:03;;;;;;;16.70;8.07;;;30.50;35.20;;;;;;5074310;28;20020;-62
2022/08/26 10:58:49;;;;;;;14.30;6.95;;;30.50;35.20;;;;;;5071417;28;20369;-62
2022/08/26 11:01:44;;;;;;;23.83;7.88;;;30.40;36.50;;;;;;5111075;28;20096;-62
2022/08/26 11:04:15;;;;;;;22.15;8.18;;;30.30;36.20;;;;;;5080494;28;20368;-63
2022/08/26 11:06:44;;;;;;;15.60;7.40;;;30.60;36.80;;;;;;5086021;28;20110;-62
2022/08/26 11:09:31;;;;;;;18.63;7.85;;;30.60;37.10;;;;;;5101192;28;20548;-62
2022/08/26 11:11:57;;;;;;;15.10;7.40;;;30.60;37.40;;;;;;5087096;28;20067;-63
2022/08/26 11:14:22;;;;;;;15.02;7.53;;;30.90;37.00;;;;;;5090488;28;20037;-62
2022/08/26 11:16:53;;;;;;;20.35;7.72;;;31.00;35.80;;;;;;5078917;28;20024;-63
2022/08/26 11:19:38;;;;;;;17.65;7.40;;;31.10;36.10;;;;;;5094396;28;20093;-62
2022/08/26 11:22:05;;;;;;;14.80;7.28;;;31.00;33.90;;;;;;5087140;28;20016;-62
2022/08/26 11:24:51;;;;;;;19.52;6.90;;;30.90;34.00;;;;;;5085334;28;20132;-61
2022/08/26 11:27:23;;;;;;;21.05;8.20;;;30.80;35.20;;;;;;5077821;28;20035;-62
2022/08/26 11:30:08;;;;;;;19.60;7.85;;;31.00;33.60;;;;;;5071638;28;20135;-62
2022/08/26 11:32:40;;;;;;;16.35;7.00;;;31.10;34.10;;;;;;5074524;28;20028;-62
2022/08/26 11:35:08;;;;;;;12.25;6.65;;;31.20;33.20;;;;;;5072387;28;20098;-64
2022/08/26 11:37:38;;;;;;;16.95;7.63;;;31.50;32.90;;;;;;5077897;28;20028;-63
2022/08/26 11:40:26;;;;;;;20.00;7.50;;;31.60;31.20;;;;;;5081010;28;20498;-62
2022/08/26 11:42:56;;;;;;;19.70;7.15;;;31.40;31.00;;;;;;5074418;28;20032;-62
2022/08/26 11:45:25;;;;;;;20.92;7.22;;;31.50;31.10;;;;;;5079752;28;20020;-63
2022/08/26 11:47:51;;;;;;;16.90;7.10;;;31.40;29.20;;;;;;5079902;28;20070;-63
2022/08/26 11:50:24;;;;;;;16.48;6.78;;;31.40;28.30;;;;;;5077976;28;20020;-62
2022/08/26 11:53:05;;;;;;;16.08;6.57;;;31.40;29.00;;;;;;5070995;28;20024;-62
2022/08/26 11:55:33;;;;;;;12.77;5.95;;;31.50;28.70;;;;;;5080350;28;20020;-62
2022/08/26 11:58:00;;;;;;;14.10;6.72;;;31.70;28.70;;;;;;5078534;28;20028;-63
2022/08/26 12:00:36;;;;;;;18.80;6.55;;;31.50;27.70;;;;;;5104823;28;20061;-63
2022/08/26 12:03:06;;;;;;;18.08;6.70;;;31.30;27.40;;;;;;5069270;28;20108;-63
2022/08/26 12:05:40;;;;;;;17.25;6.38;;;31.10;27.20;;;;;;5085514;28;20028;-59
2022/08/26 12:08:09;;;;;;;12.20;6.18;;;31.00;27.00;;;;;;5076894;28;20059;-60
2022/08/26 12:10:35;;;;;;;16.63;5.80;;;30.80;26.70;;;;;;5088625;28;20032;-60
2022/08/26 12:13:02;;;;;;;12.70;5.93;;;30.50;27.00;;;;;;5091107;28;20032;-60
2022/08/26 12:15:30;;;;;;;10.80;6.45;;;30.30;28.00;;;;;;5073083;28;20507;-60
2022/08/26 12:17:58;;;;;;;14.02;6.28;;;30.20;28.00;;;;;;5098851;28;20023;-60
2022/08/26 12:20:47;;;;;;;15.18;6.00;;;30.20;28.40;;;;;;5084183;28;20047;-60
2022/08/26 12:23:34;;;;;;;13.65;5.38;;;30.10;28.10;;;;;;5080732;28;20028;-61
2022/08/26 12:26:21;;;;;;;15.15;5.70;;;30.00;26.80;;;;;;5081378;28;20043;-61
2022/08/26 12:28:53;;;;;;;10.63;5.95;;;29.80;26.50;;;;;;5107063;28;20015;-61
2022/08/26 12:31:26;;;;;;;8.48;4.85;;;29.80;26.40;;;;;;5109049;28;20024;-61
2022/08/26 12:33:52;;;;;;;8.55;4.90;;;29.80;25.80;;;;;;5093775;28;20120;-61
2022/08/26 12:36:51;;;;;;;18.45;5.10;;;29.90;26.20;;;;;;5109283;28;20027;-61
2022/08/26 12:39:28;;;;;;;9.48;4.70;;;29.90;25.10;;;;;;5073784;28;20047;-61
2022/08/26 12:41:59;;;;;;;9.18;4.45;;;30.10;25.60;;;;;;5112953;28;20062;-62
2022/08/26 12:44:57;;;;;;;10.27;4.63;;;30.20;25.90;;;;;;5100578;27;20487;-61
2022/08/26 12:47:30;;;;;;;9.00;4.15;;;30.30;25.50;;;;;;5075252;28;20031;-62
2022/08/26 12:50:01;;;;;;;8.55;3.80;;;30.40;26.10;;;;;;5113772;28;20027;-61
2022/08/26 12:52:30;;;;;;;6.57;3.65;;;30.60;25.50;;;;;;5095901;28;20046;-61